sensor_id;sensor_type;location;lat;lon;timestamp;P1;durP1;ratioP1;P2;durP2;ratioP2
69310;SDS011;56430;48.154;16.458;2023-06-19T00:00:04;9.05;;;4.50;;
69310;SDS011;56430;48.154;16.458;2023-06-19T00:02:38;8.02;;;4.25;;
69310;SDS011;56430;48.154;16.458;2023-06-19T00:05:05;6.83;;;4.00;;
69310;SDS011;56430;48.154;16.458;2023-06-19T00:07:31;7.78;;;4.32;;
69310;SDS011;56430;48.154;16.458;2023-06-19T00:10:00;8.55;;;4.57;;
69310;SDS011;56430;48.154;16.458;2023-06-19T00:12:26;9.13;;;4.43;;
69310;SDS011;56430;48.154;16.458;2023-06-19T00:14:53;7.18;;;4.18;;
69310;SDS011;56430;48.154;16.458;2023-06-19T00:17:20;8.03;;;4.17;;
69310;SDS011;56430;48.154;16.458;2023-06-19T00:19:47;8.80;;;4.70;;
69310;SDS011;56430;48.154;16.458;2023-06-19T00:22:15;7.32;;;4.00;;
69310;SDS011;56430;48.154;16.458;2023-06-19T00:24:41;10.43;;;3.90;;
69310;SDS011;56430;48.154;16.458;2023-06-19T00:27:10;7.03;;;3.88;;
69310;SDS011;56430;48.154;16.458;2023-06-19T00:29:36;7.70;;;4.10;;
69310;SDS011;56430;48.154;16.458;2023-06-19T00:32:03;7.38;;;3.97;;
69310;SDS011;56430;48.154;16.458;2023-06-19T00:34:30;7.38;;;3.90;;
69310;SDS011;56430;48.154;16.458;2023-06-19T00:36:57;8.65;;;4.13;;
69310;SDS011;56430;48.154;16.458;2023-06-19T00:39:24;7.30;;;3.80;;
69310;SDS011;56430;48.154;16.458;2023-06-19T00:41:52;9.20;;;4.07;;
69310;SDS011;56430;48.154;16.458;2023-06-19T00:44:21;8.13;;;4.05;;
69310;SDS011;56430;48.154;16.458;2023-06-19T00:46:48;9.05;;;4.55;;
69310;SDS011;56430;48.154;16.458;2023-06-19T00:49:17;10.90;;;4.35;;
69310;SDS011;56430;48.154;16.458;2023-06-19T00:51:44;10.23;;;4.40;;
69310;SDS011;56430;48.154;16.458;2023-06-19T00:54:11;8.60;;;3.93;;
69310;SDS011;56430;48.154;16.458;2023-06-19T00:56:38;11.35;;;4.07;;
69310;SDS011;56430;48.154;16.458;2023-06-19T00:59:15;7.30;;;3.78;;
69310;SDS011;56430;48.154;16.458;2023-06-19T01:01:43;7.68;;;4.50;;
69310;SDS011;56430;48.154;16.458;2023-06-19T01:04:10;8.93;;;4.38;;
69310;SDS011;56430;48.154;16.458;2023-06-19T01:06:39;8.20;;;4.20;;
69310;SDS011;56430;48.154;16.458;2023-06-19T01:09:10;7.82;;;4.03;;
69310;SDS011;56430;48.154;16.458;2023-06-19T01:11:39;11.65;;;4.43;;
69310;SDS011;56430;48.154;16.458;2023-06-19T01:14:09;11.18;;;4.55;;
69310;SDS011;56430;48.154;16.458;2023-06-19T01:16:39;11.13;;;5.18;;
69310;SDS011;56430;48.154;16.458;2023-06-19T01:19:09;10.80;;;4.90;;
69310;SDS011;56430;48.154;16.458;2023-06-19T01:21:36;10.30;;;4.85;;
69310;SDS011;56430;48.154;16.458;2023-06-19T01:24:05;8.75;;;4.30;;
69310;SDS011;56430;48.154;16.458;2023-06-19T01:26:32;11.15;;;4.72;;
69310;SDS011;56430;48.154;16.458;2023-06-19T01:28:59;9.30;;;4.97;;
69310;SDS011;56430;48.154;16.458;2023-06-19T01:31:27;10.03;;;4.40;;
69310;SDS011;56430;48.154;16.458;2023-06-19T01:33:56;10.55;;;4.53;;
69310;SDS011;56430;48.154;16.458;2023-06-19T01:36:24;12.40;;;4.22;;
69310;SDS011;56430;48.154;16.458;2023-06-19T01:38:51;10.02;;;4.35;;
69310;SDS011;56430;48.154;16.458;2023-06-19T01:41:19;8.25;;;4.45;;
69310;SDS011;56430;48.154;16.458;2023-06-19T01:43:48;9.93;;;4.60;;
69310;SDS011;56430;48.154;16.458;2023-06-19T01:46:15;7.97;;;4.20;;
69310;SDS011;56430;48.154;16.458;2023-06-19T01:48:42;10.27;;;4.47;;
69310;SDS011;56430;48.154;16.458;2023-06-19T01:51:09;9.50;;;4.07;;
69310;SDS011;56430;48.154;16.458;2023-06-19T01:53:36;11.75;;;4.10;;
69310;SDS011;56430;48.154;16.458;2023-06-19T01:56:03;8.17;;;4.10;;
69310;SDS011;56430;48.154;16.458;2023-06-19T01:58:32;7.70;;;3.67;;
69310;SDS011;56430;48.154;16.458;2023-06-19T02:00:58;8.20;;;4.15;;
69310;SDS011;56430;48.154;16.458;2023-06-19T02:03:25;9.25;;;4.25;;
69310;SDS011;56430;48.154;16.458;2023-06-19T02:05:52;8.90;;;5.07;;
69310;SDS011;56430;48.154;16.458;2023-06-19T02:08:19;7.07;;;4.20;;
69310;SDS011;56430;48.154;16.458;2023-06-19T02:10:46;8.43;;;4.38;;
69310;SDS011;56430;48.154;16.458;2023-06-19T02:13:13;10.85;;;4.53;;
69310;SDS011;56430;48.154;16.458;2023-06-19T02:15:41;13.38;;;4.82;;
69310;SDS011;56430;48.154;16.458;2023-06-19T02:18:08;9.18;;;4.75;;
69310;SDS011;56430;48.154;16.458;2023-06-19T02:20:35;7.93;;;4.07;;
69310;SDS011;56430;48.154;16.458;2023-06-19T02:23:01;12.13;;;4.95;;
69310;SDS011;56430;48.154;16.458;2023-06-19T02:25:28;7.97;;;4.28;;
69310;SDS011;56430;48.154;16.458;2023-06-19T02:27:55;8.82;;;4.22;;
69310;SDS011;56430;48.154;16.458;2023-06-19T02:30:22;8.75;;;4.30;;
69310;SDS011;56430;48.154;16.458;2023-06-19T02:32:50;12.40;;;4.47;;
69310;SDS011;56430;48.154;16.458;2023-06-19T02:35:17;8.88;;;4.35;;
69310;SDS011;56430;48.154;16.458;2023-06-19T02:37:44;12.30;;;4.68;;
69310;SDS011;56430;48.154;16.458;2023-06-19T02:40:12;8.65;;;4.53;;
69310;SDS011;56430;48.154;16.458;2023-06-19T02:42:39;9.27;;;4.75;;
69310;SDS011;56430;48.154;16.458;2023-06-19T02:45:07;9.03;;;4.07;;
69310;SDS011;56430;48.154;16.458;2023-06-19T02:47:33;10.35;;;4.38;;
69310;SDS011;56430;48.154;16.458;2023-06-19T02:50:02;8.00;;;4.38;;
69310;SDS011;56430;48.154;16.458;2023-06-19T02:52:29;7.93;;;4.43;;
69310;SDS011;56430;48.154;16.458;2023-06-19T02:54:56;9.90;;;4.72;;
69310;SDS011;56430;48.154;16.458;2023-06-19T02:57:24;9.63;;;4.80;;
69310;SDS011;56430;48.154;16.458;2023-06-19T02:59:51;9.80;;;5.10;;
69310;SDS011;56430;48.154;16.458;2023-06-19T03:02:18;9.38;;;4.72;;
69310;SDS011;56430;48.154;16.458;2023-06-19T03:04:45;9.65;;;4.95;;
69310;SDS011;56430;48.154;16.458;2023-06-19T03:07:14;10.70;;;4.28;;
69310;SDS011;56430;48.154;16.458;2023-06-19T03:09:42;8.53;;;4.80;;
69310;SDS011;56430;48.154;16.458;2023-06-19T03:12:09;9.95;;;4.95;;
69310;SDS011;56430;48.154;16.458;2023-06-19T03:14:36;8.98;;;4.88;;
69310;SDS011;56430;48.154;16.458;2023-06-19T03:17:03;8.27;;;4.45;;
69310;SDS011;56430;48.154;16.458;2023-06-19T03:19:30;8.77;;;4.43;;
69310;SDS011;56430;48.154;16.458;2023-06-19T03:21:56;11.10;;;4.87;;
69310;SDS011;56430;48.154;16.458;2023-06-19T03:24:25;9.60;;;4.20;;
69310;SDS011;56430;48.154;16.458;2023-06-19T03:26:52;9.82;;;4.70;;
69310;SDS011;56430;48.154;16.458;2023-06-19T03:29:19;9.10;;;4.47;;
69310;SDS011;56430;48.154;16.458;2023-06-19T03:31:46;9.52;;;4.75;;
69310;SDS011;56430;48.154;16.458;2023-06-19T03:34:12;6.87;;;3.90;;
69310;SDS011;56430;48.154;16.458;2023-06-19T03:36:39;9.70;;;4.95;;
69310;SDS011;56430;48.154;16.458;2023-06-19T03:39:06;9.27;;;4.63;;
69310;SDS011;56430;48.154;16.458;2023-06-19T03:41:34;8.90;;;4.50;;
69310;SDS011;56430;48.154;16.458;2023-06-19T03:44:01;9.32;;;5.10;;
69310;SDS011;56430;48.154;16.458;2023-06-19T03:46:28;9.40;;;5.30;;
69310;SDS011;56430;48.154;16.458;2023-06-19T03:48:55;9.85;;;5.38;;
69310;SDS011;56430;48.154;16.458;2023-06-19T03:51:22;9.85;;;5.47;;
69310;SDS011;56430;48.154;16.458;2023-06-19T03:53:49;12.73;;;5.70;;
69310;SDS011;56430;48.154;16.458;2023-06-19T03:56:16;10.25;;;5.68;;
69310;SDS011;56430;48.154;16.458;2023-06-19T03:58:44;10.70;;;5.40;;
69310;SDS011;56430;48.154;16.458;2023-06-19T04:01:11;8.68;;;5.18;;
69310;SDS011;56430;48.154;16.458;2023-06-19T04:03:37;10.82;;;5.57;;
69310;SDS011;56430;48.154;16.458;2023-06-19T04:06:04;10.38;;;5.25;;
69310;SDS011;56430;48.154;16.458;2023-06-19T04:08:33;9.75;;;5.40;;
69310;SDS011;56430;48.154;16.458;2023-06-19T04:10:59;9.50;;;5.27;;
69310;SDS011;56430;48.154;16.458;2023-06-19T04:13:26;10.95;;;5.82;;
69310;SDS011;56430;48.154;16.458;2023-06-19T04:15:54;12.95;;;5.95;;
69310;SDS011;56430;48.154;16.458;2023-06-19T04:18:21;11.40;;;5.93;;
69310;SDS011;56430;48.154;16.458;2023-06-19T04:20:48;10.50;;;5.53;;
69310;SDS011;56430;48.154;16.458;2023-06-19T04:23:15;11.17;;;5.70;;
69310;SDS011;56430;48.154;16.458;2023-06-19T04:25:42;10.85;;;4.80;;
69310;SDS011;56430;48.154;16.458;2023-06-19T04:28:08;21.95;;;5.90;;
69310;SDS011;56430;48.154;16.458;2023-06-19T04:30:35;12.43;;;6.30;;
69310;SDS011;56430;48.154;16.458;2023-06-19T04:33:06;15.80;;;5.53;;
69310;SDS011;56430;48.154;16.458;2023-06-19T04:35:34;17.43;;;6.20;;
69310;SDS011;56430;48.154;16.458;2023-06-19T04:38:05;13.05;;;6.18;;
69310;SDS011;56430;48.154;16.458;2023-06-19T04:40:32;12.48;;;6.65;;
69310;SDS011;56430;48.154;16.458;2023-06-19T04:42:59;14.77;;;6.40;;
69310;SDS011;56430;48.154;16.458;2023-06-19T04:45:26;13.13;;;6.32;;
69310;SDS011;56430;48.154;16.458;2023-06-19T04:47:53;12.63;;;6.67;;
69310;SDS011;56430;48.154;16.458;2023-06-19T04:50:21;12.30;;;6.40;;
69310;SDS011;56430;48.154;16.458;2023-06-19T04:52:48;11.75;;;6.07;;
69310;SDS011;56430;48.154;16.458;2023-06-19T04:55:16;14.00;;;6.75;;
69310;SDS011;56430;48.154;16.458;2023-06-19T04:57:42;11.63;;;6.78;;
69310;SDS011;56430;48.154;16.458;2023-06-19T05:00:10;13.73;;;6.13;;
69310;SDS011;56430;48.154;16.458;2023-06-19T05:02:38;10.65;;;6.32;;
69310;SDS011;56430;48.154;16.458;2023-06-19T05:05:09;15.50;;;6.68;;
69310;SDS011;56430;48.154;16.458;2023-06-19T05:07:37;10.00;;;6.22;;
69310;SDS011;56430;48.154;16.458;2023-06-19T05:10:04;13.95;;;7.20;;
69310;SDS011;56430;48.154;16.458;2023-06-19T05:12:31;12.23;;;6.60;;
69310;SDS011;56430;48.154;16.458;2023-06-19T05:14:58;12.05;;;6.35;;
69310;SDS011;56430;48.154;16.458;2023-06-19T05:17:24;10.80;;;6.43;;
69310;SDS011;56430;48.154;16.458;2023-06-19T05:19:51;12.30;;;6.45;;
69310;SDS011;56430;48.154;16.458;2023-06-19T05:22:18;12.77;;;5.90;;
69310;SDS011;56430;48.154;16.458;2023-06-19T05:24:48;10.17;;;6.13;;
69310;SDS011;56430;48.154;16.458;2023-06-19T05:27:15;12.93;;;6.60;;
69310;SDS011;56430;48.154;16.458;2023-06-19T05:29:42;11.73;;;6.45;;
69310;SDS011;56430;48.154;16.458;2023-06-19T05:32:09;12.13;;;6.05;;
69310;SDS011;56430;48.154;16.458;2023-06-19T05:34:35;11.68;;;6.63;;
69310;SDS011;56430;48.154;16.458;2023-06-19T05:37:02;11.03;;;6.47;;
69310;SDS011;56430;48.154;16.458;2023-06-19T05:39:29;13.05;;;6.95;;
69310;SDS011;56430;48.154;16.458;2023-06-19T05:41:57;16.05;;;6.75;;
69310;SDS011;56430;48.154;16.458;2023-06-19T05:44:24;11.77;;;6.72;;
69310;SDS011;56430;48.154;16.458;2023-06-19T05:46:51;9.43;;;6.10;;
69310;SDS011;56430;48.154;16.458;2023-06-19T05:49:18;13.10;;;6.10;;
69310;SDS011;56430;48.154;16.458;2023-06-19T05:51:45;10.20;;;5.90;;
69310;SDS011;56430;48.154;16.458;2023-06-19T05:54:12;8.93;;;5.40;;
69310;SDS011;56430;48.154;16.458;2023-06-19T05:56:38;9.80;;;5.93;;
69310;SDS011;56430;48.154;16.458;2023-06-19T05:59:07;10.15;;;5.60;;
69310;SDS011;56430;48.154;16.458;2023-06-19T06:01:33;9.17;;;5.83;;
69310;SDS011;56430;48.154;16.458;2023-06-19T06:04:00;10.77;;;5.45;;
69310;SDS011;56430;48.154;16.458;2023-06-19T06:06:28;12.68;;;6.00;;
69310;SDS011;56430;48.154;16.458;2023-06-19T06:08:54;9.82;;;5.30;;
69310;SDS011;56430;48.154;16.458;2023-06-19T06:11:22;9.55;;;5.13;;
69310;SDS011;56430;48.154;16.458;2023-06-19T06:13:49;8.53;;;4.80;;
69310;SDS011;56430;48.154;16.458;2023-06-19T06:16:17;7.80;;;5.00;;
69310;SDS011;56430;48.154;16.458;2023-06-19T06:18:44;8.68;;;5.20;;
69310;SDS011;56430;48.154;16.458;2023-06-19T06:21:11;9.93;;;5.40;;
69310;SDS011;56430;48.154;16.458;2023-06-19T06:23:40;9.20;;;5.30;;
69310;SDS011;56430;48.154;16.458;2023-06-19T06:26:07;10.52;;;5.30;;
69310;SDS011;56430;48.154;16.458;2023-06-19T06:28:33;9.00;;;5.00;;
69310;SDS011;56430;48.154;16.458;2023-06-19T06:31:00;9.15;;;4.80;;
69310;SDS011;56430;48.154;16.458;2023-06-19T06:33:29;8.77;;;5.35;;
69310;SDS011;56430;48.154;16.458;2023-06-19T06:35:57;9.48;;;5.00;;
69310;SDS011;56430;48.154;16.458;2023-06-19T06:38:24;8.75;;;4.93;;
69310;SDS011;56430;48.154;16.458;2023-06-19T06:40:50;10.13;;;5.63;;
69310;SDS011;56430;48.154;16.458;2023-06-19T06:43:17;8.37;;;5.00;;
69310;SDS011;56430;48.154;16.458;2023-06-19T06:45:44;10.25;;;5.18;;
69310;SDS011;56430;48.154;16.458;2023-06-19T06:48:11;8.93;;;5.38;;
69310;SDS011;56430;48.154;16.458;2023-06-19T06:50:39;9.15;;;5.20;;
69310;SDS011;56430;48.154;16.458;2023-06-19T06:53:06;8.93;;;4.72;;
69310;SDS011;56430;48.154;16.458;2023-06-19T06:55:33;11.13;;;5.30;;
69310;SDS011;56430;48.154;16.458;2023-06-19T06:58:00;10.23;;;5.70;;
69310;SDS011;56430;48.154;16.458;2023-06-19T07:00:27;9.85;;;5.35;;
69310;SDS011;56430;48.154;16.458;2023-06-19T07:02:54;9.48;;;4.50;;
69310;SDS011;56430;48.154;16.458;2023-06-19T07:05:21;8.02;;;4.60;;
69310;SDS011;56430;48.154;16.458;2023-06-19T07:07:49;6.85;;;4.40;;
69310;SDS011;56430;48.154;16.458;2023-06-19T07:10:16;7.60;;;4.73;;
69310;SDS011;56430;48.154;16.458;2023-06-19T07:12:46;6.40;;;4.30;;
69310;SDS011;56430;48.154;16.458;2023-06-19T07:15:13;7.45;;;4.28;;
69310;SDS011;56430;48.154;16.458;2023-06-19T07:17:40;6.57;;;4.30;;
69310;SDS011;56430;48.154;16.458;2023-06-19T07:20:07;8.00;;;4.97;;
69310;SDS011;56430;48.154;16.458;2023-06-19T07:22:34;10.77;;;5.28;;
69310;SDS011;56430;48.154;16.458;2023-06-19T07:25:03;7.13;;;4.85;;
69310;SDS011;56430;48.154;16.458;2023-06-19T07:27:30;8.70;;;5.43;;
69310;SDS011;56430;48.154;16.458;2023-06-19T07:29:57;9.23;;;5.20;;
69310;SDS011;56430;48.154;16.458;2023-06-19T07:32:24;7.45;;;4.93;;
69310;SDS011;56430;48.154;16.458;2023-06-19T07:34:51;7.90;;;4.90;;
69310;SDS011;56430;48.154;16.458;2023-06-19T07:37:18;7.93;;;5.10;;
69310;SDS011;56430;48.154;16.458;2023-06-19T07:39:45;10.05;;;5.40;;
69310;SDS011;56430;48.154;16.458;2023-06-19T07:42:13;6.90;;;4.85;;
69310;SDS011;56430;48.154;16.458;2023-06-19T07:44:41;11.13;;;7.38;;
69310;SDS011;56430;48.154;16.458;2023-06-19T07:47:08;8.07;;;5.50;;
69310;SDS011;56430;48.154;16.458;2023-06-19T07:49:35;7.30;;;4.93;;
69310;SDS011;56430;48.154;16.458;2023-06-19T07:52:02;7.28;;;5.00;;
69310;SDS011;56430;48.154;16.458;2023-06-19T07:54:29;7.07;;;4.97;;
69310;SDS011;56430;48.154;16.458;2023-06-19T07:56:56;7.28;;;4.82;;
69310;SDS011;56430;48.154;16.458;2023-06-19T07:59:24;7.13;;;5.37;;
69310;SDS011;56430;48.154;16.458;2023-06-19T08:01:51;7.27;;;5.30;;
69310;SDS011;56430;48.154;16.458;2023-06-19T08:04:18;6.00;;;4.40;;
69310;SDS011;56430;48.154;16.458;2023-06-19T08:06:45;8.00;;;4.68;;
69310;SDS011;56430;48.154;16.458;2023-06-19T08:09:12;11.82;;;6.57;;
69310;SDS011;56430;48.154;16.458;2023-06-19T08:11:39;6.97;;;4.60;;
69310;SDS011;56430;48.154;16.458;2023-06-19T08:14:06;8.40;;;5.13;;
69310;SDS011;56430;48.154;16.458;2023-06-19T08:16:34;6.95;;;4.75;;
69310;SDS011;56430;48.154;16.458;2023-06-19T08:19:01;7.18;;;5.40;;
69310;SDS011;56430;48.154;16.458;2023-06-19T08:21:28;7.72;;;5.00;;
69310;SDS011;56430;48.154;16.458;2023-06-19T08:23:55;5.63;;;4.80;;
69310;SDS011;56430;48.154;16.458;2023-06-19T08:26:22;5.90;;;5.00;;
69310;SDS011;56430;48.154;16.458;2023-06-19T08:28:48;6.50;;;5.20;;
69310;SDS011;56430;48.154;16.458;2023-06-19T08:31:15;7.38;;;5.65;;
69310;SDS011;56430;48.154;16.458;2023-06-19T08:33:46;8.45;;;5.22;;
69310;SDS011;56430;48.154;16.458;2023-06-19T08:36:14;7.80;;;5.63;;
69310;SDS011;56430;48.154;16.458;2023-06-19T08:38:40;6.15;;;5.32;;
69310;SDS011;56430;48.154;16.458;2023-06-19T08:41:07;6.60;;;5.50;;
69310;SDS011;56430;48.154;16.458;2023-06-19T08:43:34;7.03;;;5.80;;
69310;SDS011;56430;48.154;16.458;2023-06-19T08:46:05;6.32;;;5.22;;
69310;SDS011;56430;48.154;16.458;2023-06-19T08:48:34;6.53;;;5.80;;
69310;SDS011;56430;48.154;16.458;2023-06-19T08:51:02;12.90;;;7.70;;
69310;SDS011;56430;48.154;16.458;2023-06-19T08:53:32;9.60;;;6.80;;
69310;SDS011;56430;48.154;16.458;2023-06-19T08:55:59;7.13;;;6.30;;
69310;SDS011;56430;48.154;16.458;2023-06-19T08:58:26;8.88;;;6.82;;
69310;SDS011;56430;48.154;16.458;2023-06-19T09:00:53;6.82;;;6.00;;
69310;SDS011;56430;48.154;16.458;2023-06-19T09:03:20;7.28;;;6.35;;
69310;SDS011;56430;48.154;16.458;2023-06-19T09:05:48;7.88;;;6.10;;
69310;SDS011;56430;48.154;16.458;2023-06-19T09:08:18;6.63;;;6.03;;
69310;SDS011;56430;48.154;16.458;2023-06-19T09:10:54;7.25;;;6.55;;
69310;SDS011;56430;48.154;16.458;2023-06-19T09:13:20;7.17;;;6.33;;
69310;SDS011;56430;48.154;16.458;2023-06-19T09:15:47;7.10;;;6.40;;
69310;SDS011;56430;48.154;16.458;2023-06-19T09:18:15;6.80;;;6.20;;
69310;SDS011;56430;48.154;16.458;2023-06-19T09:20:43;7.50;;;6.70;;
69310;SDS011;56430;48.154;16.458;2023-06-19T09:23:10;7.13;;;6.43;;
69310;SDS011;56430;48.154;16.458;2023-06-19T09:25:46;7.70;;;6.30;;
69310;SDS011;56430;48.154;16.458;2023-06-19T09:28:16;7.10;;;6.40;;
69310;SDS011;56430;48.154;16.458;2023-06-19T09:30:51;7.10;;;6.32;;
69310;SDS011;56430;48.154;16.458;2023-06-19T09:33:17;8.60;;;7.80;;
69310;SDS011;56430;48.154;16.458;2023-06-19T09:35:44;7.97;;;7.18;;
69310;SDS011;56430;48.154;16.458;2023-06-19T09:38:11;9.37;;;8.17;;
69310;SDS011;56430;48.154;16.458;2023-06-19T09:40:39;10.27;;;7.90;;
69310;SDS011;56430;48.154;16.458;2023-06-19T09:43:07;7.45;;;6.75;;
69310;SDS011;56430;48.154;16.458;2023-06-19T09:45:35;7.50;;;6.80;;
69310;SDS011;56430;48.154;16.458;2023-06-19T09:48:02;7.70;;;7.00;;
69310;SDS011;56430;48.154;16.458;2023-06-19T09:50:30;7.45;;;6.75;;
69310;SDS011;56430;48.154;16.458;2023-06-19T09:52:57;8.88;;;6.97;;
69310;SDS011;56430;48.154;16.458;2023-06-19T09:55:24;7.00;;;6.30;;
69310;SDS011;56430;48.154;16.458;2023-06-19T09:57:54;8.38;;;7.10;;
69310;SDS011;56430;48.154;16.458;2023-06-19T10:00:22;9.45;;;6.97;;
69310;SDS011;56430;48.154;16.458;2023-06-19T10:02:56;7.20;;;6.50;;
69310;SDS011;56430;48.154;16.458;2023-06-19T10:05:28;8.07;;;6.50;;
69310;SDS011;56430;48.154;16.458;2023-06-19T10:07:55;7.30;;;6.60;;
69310;SDS011;56430;48.154;16.458;2023-06-19T10:10:26;7.50;;;6.55;;
69310;SDS011;56430;48.154;16.458;2023-06-19T10:12:53;7.50;;;6.78;;
69310;SDS011;56430;48.154;16.458;2023-06-19T10:15:23;7.72;;;7.03;;
69310;SDS011;56430;48.154;16.458;2023-06-19T10:17:51;7.65;;;6.80;;
69310;SDS011;56430;48.154;16.458;2023-06-19T10:20:22;8.10;;;7.30;;
69310;SDS011;56430;48.154;16.458;2023-06-19T10:22:52;7.82;;;7.05;;
69310;SDS011;56430;48.154;16.458;2023-06-19T10:25:20;7.68;;;6.88;;
69310;SDS011;56430;48.154;16.458;2023-06-19T10:27:47;7.27;;;6.47;;
69310;SDS011;56430;48.154;16.458;2023-06-19T10:30:17;9.77;;;6.93;;
69310;SDS011;56430;48.154;16.458;2023-06-19T10:32:46;7.00;;;6.40;;
69310;SDS011;56430;48.154;16.458;2023-06-19T10:35:13;8.43;;;7.55;;
69310;SDS011;56430;48.154;16.458;2023-06-19T10:37:40;9.30;;;7.00;;
69310;SDS011;56430;48.154;16.458;2023-06-19T10:40:08;8.45;;;7.47;;
69310;SDS011;56430;48.154;16.458;2023-06-19T10:42:36;7.85;;;7.05;;
69310;SDS011;56430;48.154;16.458;2023-06-19T10:45:04;11.13;;;6.65;;
69310;SDS011;56430;48.154;16.458;2023-06-19T10:47:31;7.65;;;6.80;;
69310;SDS011;56430;48.154;16.458;2023-06-19T10:49:59;8.60;;;6.53;;
69310;SDS011;56430;48.154;16.458;2023-06-19T10:52:27;7.40;;;6.70;;
69310;SDS011;56430;48.154;16.458;2023-06-19T10:54:54;7.47;;;6.87;;
69310;SDS011;56430;48.154;16.458;2023-06-19T10:57:26;7.15;;;6.55;;
69310;SDS011;56430;48.154;16.458;2023-06-19T10:59:53;7.28;;;6.63;;
69310;SDS011;56430;48.154;16.458;2023-06-19T11:02:20;7.88;;;7.18;;
69310;SDS011;56430;48.154;16.458;2023-06-19T11:04:47;8.32;;;7.53;;
69310;SDS011;56430;48.154;16.458;2023-06-19T11:07:16;8.63;;;7.82;;
69310;SDS011;56430;48.154;16.458;2023-06-19T11:09:43;8.10;;;7.00;;
69310;SDS011;56430;48.154;16.458;2023-06-19T11:12:10;7.88;;;7.18;;
69310;SDS011;56430;48.154;16.458;2023-06-19T11:14:37;9.10;;;7.32;;
69310;SDS011;56430;48.154;16.458;2023-06-19T11:17:05;7.77;;;6.83;;
69310;SDS011;56430;48.154;16.458;2023-06-19T11:19:32;8.47;;;6.20;;
69310;SDS011;56430;48.154;16.458;2023-06-19T11:21:59;8.43;;;6.00;;
69310;SDS011;56430;48.154;16.458;2023-06-19T11:24:30;6.95;;;6.07;;
69310;SDS011;56430;48.154;16.458;2023-06-19T11:26:56;7.32;;;5.82;;
69310;SDS011;56430;48.154;16.458;2023-06-19T11:29:24;7.13;;;6.20;;
69310;SDS011;56430;48.154;16.458;2023-06-19T11:31:53;6.03;;;5.43;;
69310;SDS011;56430;48.154;16.458;2023-06-19T11:34:30;6.55;;;5.55;;
69310;SDS011;56430;48.154;16.458;2023-06-19T11:36:57;6.88;;;5.47;;
69310;SDS011;56430;48.154;16.458;2023-06-19T11:39:24;6.05;;;5.38;;
69310;SDS011;56430;48.154;16.458;2023-06-19T11:41:52;7.40;;;5.27;;
69310;SDS011;56430;48.154;16.458;2023-06-19T11:44:19;5.60;;;4.93;;
69310;SDS011;56430;48.154;16.458;2023-06-19T11:46:46;5.72;;;4.82;;
69310;SDS011;56430;48.154;16.458;2023-06-19T11:49:14;5.68;;;5.07;;
69310;SDS011;56430;48.154;16.458;2023-06-19T11:51:42;8.32;;;6.40;;
69310;SDS011;56430;48.154;16.458;2023-06-19T11:54:10;7.88;;;5.18;;
69310;SDS011;56430;48.154;16.458;2023-06-19T11:56:37;5.95;;;4.47;;
69310;SDS011;56430;48.154;16.458;2023-06-19T11:59:05;7.22;;;4.82;;
69310;SDS011;56430;48.154;16.458;2023-06-19T12:01:32;6.03;;;4.70;;
69310;SDS011;56430;48.154;16.458;2023-06-19T12:03:59;6.55;;;4.75;;
69310;SDS011;56430;48.154;16.458;2023-06-19T12:06:26;5.83;;;4.50;;
69310;SDS011;56430;48.154;16.458;2023-06-19T12:08:53;7.40;;;4.80;;
69310;SDS011;56430;48.154;16.458;2023-06-19T12:11:20;6.18;;;4.20;;
69310;SDS011;56430;48.154;16.458;2023-06-19T12:13:47;5.22;;;4.30;;
69310;SDS011;56430;48.154;16.458;2023-06-19T12:16:16;4.80;;;3.95;;
69310;SDS011;56430;48.154;16.458;2023-06-19T12:18:42;5.32;;;4.38;;
69310;SDS011;56430;48.154;16.458;2023-06-19T12:21:09;5.50;;;4.28;;
69310;SDS011;56430;48.154;16.458;2023-06-19T12:23:36;6.15;;;4.45;;
69310;SDS011;56430;48.154;16.458;2023-06-19T12:26:03;6.20;;;4.63;;
69310;SDS011;56430;48.154;16.458;2023-06-19T12:28:30;5.55;;;4.22;;
69310;SDS011;56430;48.154;16.458;2023-06-19T12:30:57;4.60;;;4.10;;
69310;SDS011;56430;48.154;16.458;2023-06-19T12:33:25;6.13;;;4.50;;
69310;SDS011;56430;48.154;16.458;2023-06-19T12:35:58;4.70;;;4.18;;
69310;SDS011;56430;48.154;16.458;2023-06-19T12:38:25;5.38;;;4.82;;
69310;SDS011;56430;48.154;16.458;2023-06-19T12:40:52;6.00;;;4.65;;
69310;SDS011;56430;48.154;16.458;2023-06-19T12:43:19;5.72;;;4.38;;
69310;SDS011;56430;48.154;16.458;2023-06-19T12:45:45;5.75;;;4.38;;
69310;SDS011;56430;48.154;16.458;2023-06-19T12:48:12;5.20;;;3.90;;
69310;SDS011;56430;48.154;16.458;2023-06-19T12:50:41;5.15;;;3.97;;
69310;SDS011;56430;48.154;16.458;2023-06-19T12:53:08;4.85;;;4.28;;
69310;SDS011;56430;48.154;16.458;2023-06-19T12:55:34;5.27;;;3.80;;
69310;SDS011;56430;48.154;16.458;2023-06-19T12:58:01;7.43;;;4.60;;
69310;SDS011;56430;48.154;16.458;2023-06-19T13:00:28;5.65;;;4.63;;
69310;SDS011;56430;48.154;16.458;2023-06-19T13:02:55;5.88;;;4.45;;
69310;SDS011;56430;48.154;16.458;2023-06-19T13:05:22;5.85;;;4.38;;
69310;SDS011;56430;48.154;16.458;2023-06-19T13:07:50;6.75;;;4.30;;
69310;SDS011;56430;48.154;16.458;2023-06-19T13:10:17;5.45;;;4.55;;
69310;SDS011;56430;48.154;16.458;2023-06-19T13:12:44;6.38;;;4.38;;
69310;SDS011;56430;48.154;16.458;2023-06-19T13:15:11;5.03;;;4.30;;
69310;SDS011;56430;48.154;16.458;2023-06-19T13:17:38;4.80;;;4.00;;
69310;SDS011;56430;48.154;16.458;2023-06-19T13:20:05;6.53;;;4.80;;
69310;SDS011;56430;48.154;16.458;2023-06-19T13:22:32;8.40;;;4.50;;
69310;SDS011;56430;48.154;16.458;2023-06-19T13:25:01;5.80;;;4.57;;
69310;SDS011;56430;48.154;16.458;2023-06-19T13:27:27;5.97;;;4.57;;
69310;SDS011;56430;48.154;16.458;2023-06-19T13:29:54;7.45;;;4.38;;
69310;SDS011;56430;48.154;16.458;2023-06-19T13:32:21;7.50;;;4.95;;
69310;SDS011;56430;48.154;16.458;2023-06-19T13:34:48;4.93;;;4.25;;
69310;SDS011;56430;48.154;16.458;2023-06-19T13:37:15;5.88;;;4.70;;
69310;SDS011;56430;48.154;16.458;2023-06-19T13:39:42;5.50;;;4.70;;
69310;SDS011;56430;48.154;16.458;2023-06-19T13:42:10;5.32;;;4.30;;
69310;SDS011;56430;48.154;16.458;2023-06-19T13:44:37;7.00;;;4.43;;
69310;SDS011;56430;48.154;16.458;2023-06-19T13:47:05;7.20;;;4.43;;
69310;SDS011;56430;48.154;16.458;2023-06-19T13:49:31;5.35;;;4.30;;
69310;SDS011;56430;48.154;16.458;2023-06-19T13:51:58;5.60;;;4.57;;
69310;SDS011;56430;48.154;16.458;2023-06-19T13:54:25;5.72;;;4.90;;
69310;SDS011;56430;48.154;16.458;2023-06-19T13:56:52;5.25;;;4.47;;
69310;SDS011;56430;48.154;16.458;2023-06-19T13:59:20;5.75;;;4.32;;
69310;SDS011;56430;48.154;16.458;2023-06-19T14:01:47;6.05;;;4.30;;
69310;SDS011;56430;48.154;16.458;2023-06-19T14:04:14;5.65;;;4.57;;
69310;SDS011;56430;48.154;16.458;2023-06-19T14:06:41;5.60;;;4.60;;
69310;SDS011;56430;48.154;16.458;2023-06-19T14:09:09;5.43;;;4.00;;
69310;SDS011;56430;48.154;16.458;2023-06-19T14:11:36;5.27;;;4.50;;
69310;SDS011;56430;48.154;16.458;2023-06-19T14:14:03;4.95;;;3.97;;
69310;SDS011;56430;48.154;16.458;2023-06-19T14:16:31;5.47;;;4.32;;
69310;SDS011;56430;48.154;16.458;2023-06-19T14:18:58;7.03;;;4.60;;
69310;SDS011;56430;48.154;16.458;2023-06-19T14:21:25;6.13;;;4.30;;
69310;SDS011;56430;48.154;16.458;2023-06-19T14:23:52;5.65;;;4.13;;
69310;SDS011;56430;48.154;16.458;2023-06-19T14:26:19;6.00;;;4.75;;
69310;SDS011;56430;48.154;16.458;2023-06-19T14:28:46;9.80;;;4.57;;
69310;SDS011;56430;48.154;16.458;2023-06-19T14:31:13;6.63;;;3.92;;